Terminal Aerodrome Forecast
Issued by NWS

Home | Current Version | Previous Version | Text Only | Print | Product List | Glossary On
Versions: 1 2 3 4 5 6 7 8 9 10 11 12
957
FTUS45 KTFX 310537
TAFHVR
TAF
KHVR 310537Z 3106/0106 10009KT P6SM SCT100
     FM310900 29012KT P6SM SKC
     FM312100 29015G25KT P6SM SCT100
     FM010000 32015G22KT P6SM SKC
     FM010300 35008KT P6SM SKC=

USA.gov is the U.S. government's official web portal to all federal, state and local government web resources and services.